createdAt,value
2018-07-17T00:00:42.994Z,99.99
2018-07-17T00:01:42.933Z,99.99
2018-07-17T00:02:43.021Z,99.99
2018-07-17T00:03:42.963Z,99.99
2018-07-17T00:04:42.975Z,99.99
2018-07-17T00:05:43.256Z,99.99
2018-07-17T00:06:42.909Z,99.99
2018-07-17T00:07:42.945Z,99.99
2018-07-17T00:08:42.924Z,99.99
2018-07-17T00:09:43.300Z,99.99
2018-07-17T00:10:43.058Z,99.99
2018-07-17T00:11:42.872Z,99.99
2018-07-17T00:12:43.191Z,99.99
2018-07-17T00:13:42.847Z,99.99
2018-07-17T00:14:42.799Z,99.99
2018-07-17T00:15:42.703Z,99.99
2018-07-17T00:16:42.781Z,99.99
2018-07-17T00:17:42.730Z,99.99
2018-07-17T00:18:42.768Z,99.99
2018-07-17T00:19:43.048Z,99.99
2018-07-17T00:20:42.768Z,99.99
2018-07-17T00:21:42.760Z,99.99
2018-07-17T00:22:42.764Z,99.99
2018-07-17T00:23:42.695Z,99.99
2018-07-17T00:24:42.633Z,99.99
2018-07-17T00:25:42.633Z,99.99
2018-07-17T00:26:42.984Z,99.99
2018-07-17T00:27:42.663Z,99.99
2018-07-17T00:28:42.599Z,99.99
2018-07-17T00:29:42.529Z,99.99
2018-07-17T00:30:42.629Z,99.99
2018-07-17T00:31:42.570Z,99.99
2018-07-17T00:32:42.621Z,99.99
2018-07-17T00:33:43.119Z,99.99
2018-07-17T00:34:42.527Z,99.99
2018-07-17T00:35:42.589Z,99.99
2018-07-17T00:37:42.545Z,99.99
2018-07-17T00:38:42.402Z,99.99
2018-07-17T00:39:42.923Z,99.99
2018-07-17T00:40:42.593Z,99.99
2018-07-17T00:42:42.526Z,99.99
2018-07-17T00:43:42.541Z,99.99
2018-07-17T00:44:42.341Z,99.99
2018-07-17T00:46:42.620Z,99.99
2018-07-17T00:48:43.631Z,99.99
2018-07-17T00:52:42.557Z,99.99
2018-07-17T00:53:42.344Z,99.99
2018-07-17T00:54:42.539Z,99.99
2018-07-17T00:55:42.493Z,99.99
2018-07-17T00:56:42.260Z,99.99
2018-07-17T00:57:42.271Z,99.99
2018-07-17T00:58:42.610Z,99.99
2018-07-17T00:59:42.236Z,99.99
2018-07-17T01:00:42.196Z,99.99
2018-07-17T01:01:42.212Z,99.99
2018-07-17T01:02:42.147Z,99.99
2018-07-17T01:03:42.055Z,99.99
2018-07-17T01:04:42.555Z,99.99
2018-07-17T01:05:42.166Z,99.99
2018-07-17T01:06:42.143Z,99.99
2018-07-17T01:07:42.109Z,99.99
2018-07-17T01:08:41.988Z,99.99
2018-07-17T01:09:42.115Z,99.99
2018-07-17T01:10:42.316Z,99.99
2018-07-17T01:11:42.102Z,99.99
2018-07-17T01:12:42.014Z,99.99
2018-07-17T01:13:42.056Z,99.99
2018-07-17T01:14:42.075Z,99.99
2018-07-17T01:15:42.125Z,99.99
2018-07-17T01:16:42.308Z,99.99
2018-07-17T01:17:41.930Z,99.99
2018-07-17T01:18:41.923Z,99.99
2018-07-17T01:19:41.844Z,99.99
2018-07-17T01:20:42.010Z,99.99
2018-07-17T01:21:41.928Z,99.99
2018-07-17T01:22:42.000Z,99.99
2018-07-17T01:23:42.085Z,99.99
2018-07-17T01:24:41.899Z,99.99
2018-07-17T01:25:41.877Z,99.99
2018-07-17T01:26:41.855Z,99.99
2018-07-17T01:27:42.257Z,99.99
2018-07-17T01:28:41.883Z,99.99
2018-07-17T01:29:41.774Z,99.99
2018-07-17T01:30:42.049Z,99.99
2018-07-17T01:31:41.792Z,99.99
2018-07-17T01:32:41.805Z,99.99
2018-07-17T01:33:41.717Z,99.99
2018-07-17T01:34:41.698Z,99.99
2018-07-17T01:35:41.737Z,99.99
2018-07-17T01:36:41.744Z,99.99
2018-07-17T01:37:42.068Z,99.99
2018-07-17T01:38:41.637Z,99.99
2018-07-17T01:39:41.570Z,99.99
2018-07-17T01:40:41.599Z,99.99
2018-07-17T01:41:41.541Z,99.99
2018-07-17T01:42:41.645Z,99.99
2018-07-17T01:43:41.675Z,99.99
2018-07-17T01:44:41.887Z,99.99
2018-07-17T01:45:41.631Z,99.99
2018-07-17T01:46:41.564Z,99.99
2018-07-17T01:47:41.579Z,99.99
2018-07-17T01:48:41.433Z,99.99
2018-07-17T01:49:41.564Z,99.99
2018-07-17T01:50:41.416Z,99.99
2018-07-17T01:51:41.865Z,99.99
2018-07-17T01:52:41.428Z,99.99
2018-07-17T01:53:41.365Z,99.99
2018-07-17T01:55:41.444Z,99.99
2018-07-17T01:56:41.881Z,99.99
2018-07-17T01:58:41.638Z,99.99
2018-07-17T02:01:42.792Z,99.99
2018-07-17T02:02:41.347Z,99.99
2018-07-17T02:03:41.289Z,99.99
2018-07-17T02:05:41.648Z,99.99
2018-07-17T02:07:41.396Z,99.99
2018-07-17T02:08:41.288Z,99.99
2018-07-17T02:09:41.278Z,99.99
2018-07-17T02:10:41.672Z,99.99
2018-07-17T02:13:41.536Z,99.99
2018-07-17T02:14:41.205Z,99.99
2018-07-17T02:16:41.051Z,99.99
2018-07-17T02:17:41.087Z,99.99
2018-07-17T02:18:41.196Z,99.99
2018-07-17T02:20:41.439Z,99.99
2018-07-17T02:21:41.055Z,99.99
2018-07-17T02:22:41.042Z,99.99
2018-07-17T02:23:41.630Z,99.99
2018-07-17T02:24:41.025Z,99.99
2018-07-17T02:25:40.992Z,99.99
2018-07-17T02:26:41.355Z,99.99
2018-07-17T02:27:40.996Z,99.99
2018-07-17T02:28:41.623Z,99.99
2018-07-17T02:31:40.953Z,99.99
2018-07-17T02:32:40.851Z,99.99
2018-07-17T02:34:41.952Z,99.99
2018-07-17T02:35:40.905Z,99.99
2018-07-17T02:36:40.794Z,99.99
2018-07-17T02:37:40.829Z,99.99
2018-07-17T02:38:40.895Z,99.99
2018-07-17T02:39:40.744Z,99.99
2018-07-17T02:40:41.074Z,99.99
2018-07-17T02:41:40.748Z,99.99
2018-07-17T02:42:40.700Z,99.99
2018-07-17T02:43:40.785Z,99.99
2018-07-17T02:44:40.711Z,99.99
2018-07-17T02:45:40.677Z,99.99
2018-07-17T02:46:41.051Z,99.99
2018-07-17T02:47:41.196Z,99.99
2018-07-17T02:48:40.622Z,99.99
2018-07-17T02:49:40.595Z,99.99
2018-07-17T02:50:40.857Z,99.99
2018-07-17T02:51:40.574Z,99.99
2018-07-17T02:52:40.585Z,99.99
2018-07-17T02:53:40.907Z,99.99
2018-07-17T02:54:40.482Z,99.99
2018-07-17T02:55:40.553Z,99.99
2018-07-17T02:56:40.563Z,99.99
2018-07-17T02:57:40.587Z,99.99
2018-07-17T02:58:40.446Z,99.99
2018-07-17T02:59:40.551Z,99.99
2018-07-17T03:00:40.913Z,99.99
2018-07-17T03:01:40.495Z,99.99
2018-07-17T03:02:40.421Z,99.99
2018-07-17T03:03:40.506Z,99.99
2018-07-17T03:04:41.139Z,99.99
2018-07-17T03:08:40.813Z,99.99
2018-07-17T03:09:40.380Z,99.99
2018-07-17T03:10:40.266Z,99.99
2018-07-17T03:12:40.277Z,99.99
2018-07-17T03:14:40.553Z,99.99
2018-07-17T03:15:40.298Z,99.99
2018-07-17T03:16:40.301Z,99.99
2018-07-17T03:17:40.276Z,99.99
2018-07-17T03:18:40.280Z,99.99
2018-07-17T03:19:40.179Z,99.99
2018-07-17T03:20:40.201Z,99.99
2018-07-17T03:21:40.690Z,99.99
2018-07-17T03:22:40.069Z,99.99
2018-07-17T03:23:40.109Z,99.99
2018-07-17T03:24:40.250Z,99.99
2018-07-17T03:25:40.055Z,99.81
2018-07-17T03:26:40.116Z,99.81
2018-07-17T03:27:40.426Z,99.81
2018-07-17T03:28:40.557Z,99.99
2018-07-17T03:29:39.963Z,99.99
2018-07-17T03:30:40.002Z,99.99
2018-07-17T03:31:40.169Z,99.99
2018-07-17T03:32:40.055Z,99.99
2018-07-17T03:33:39.909Z,99.99
2018-07-17T03:34:40.009Z,99.99
2018-07-17T03:35:40.179Z,99.99
2018-07-17T03:36:39.984Z,99.99
2018-07-17T03:37:39.857Z,99.99
2018-07-17T03:38:39.880Z,99.99
2018-07-17T03:39:39.875Z,99.99
2018-07-17T03:40:40.066Z,99.99
2018-07-17T03:41:40.560Z,99.99
2018-07-17T03:42:39.883Z,99.99
2018-07-17T03:43:39.813Z,99.99
2018-07-17T03:44:39.855Z,99.99
2018-07-17T03:45:39.797Z,99.99
2018-07-17T03:46:39.715Z,99.99
2018-07-17T03:47:40.140Z,99.52
2018-07-17T03:48:39.811Z,98.75
2018-07-17T03:49:39.720Z,98.75
2018-07-17T03:50:39.698Z,99.33
2018-07-17T03:51:39.771Z,98.85
2018-07-17T03:52:39.745Z,98.75
2018-07-17T03:53:40.113Z,98.75
2018-07-17T03:54:39.657Z,98.47
2018-07-17T03:55:39.669Z,98.18
2018-07-17T03:56:39.685Z,98.28
2018-07-17T03:57:39.724Z,98.28
2018-07-17T03:58:39.981Z,98.09
2018-07-17T03:59:40.182Z,97.23
2018-07-17T04:00:39.513Z,97.23
2018-07-17T04:01:39.496Z,97.80
2018-07-17T04:02:39.522Z,98.18
2018-07-17T04:04:39.596Z,97.33
2018-07-17T04:05:39.466Z,97.90
2018-07-17T04:07:40.013Z,97.23
2018-07-17T04:09:39.709Z,97.23
2018-07-17T04:12:39.584Z,97.13
2018-07-17T04:13:39.401Z,97.23
2018-07-17T04:14:39.947Z,97.99
2018-07-17T04:15:40.839Z,97.61
2018-07-17T04:16:39.958Z,97.23
2018-07-17T04:17:39.343Z,97.90
2018-07-17T04:18:39.304Z,97.80
2018-07-17T04:19:39.302Z,97.99
2018-07-17T04:20:39.286Z,98.28
2018-07-17T04:22:39.667Z,97.47
2018-07-17T04:24:39.259Z,96.99
2018-07-17T04:25:39.338Z,97.28
2018-07-17T04:27:39.103Z,97.18
2018-07-17T04:28:39.121Z,97.28
2018-07-17T04:29:39.379Z,97.56
2018-07-17T04:30:39.067Z,97.47
2018-07-17T04:31:39.095Z,97.28
2018-07-17T04:32:39.044Z,97.47
2018-07-17T04:33:39.153Z,97.08
2018-07-17T04:34:39.035Z,97.28
2018-07-17T04:35:39.082Z,97.08
2018-07-17T04:36:39.353Z,97.28
2018-07-17T04:38:38.980Z,97.56
2018-07-17T04:39:39.341Z,98.09
2018-07-17T04:40:38.899Z,98.86
2018-07-17T04:41:38.886Z,98.57
2018-07-17T04:42:38.961Z,99.05
2018-07-17T04:43:39.150Z,99.91
2018-07-17T04:44:38.912Z,99.05
2018-07-17T04:45:38.994Z,99.91
2018-07-17T04:46:38.953Z,99.24
2018-07-17T04:47:38.953Z,99.29
2018-07-17T04:48:38.808Z,99.99
2018-07-17T04:49:38.766Z,99.99
2018-07-17T04:50:39.053Z,99.99
2018-07-17T04:51:38.825Z,99.99
2018-07-17T04:52:38.716Z,99.99
2018-07-17T04:53:38.703Z,99.99
2018-07-17T04:54:38.716Z,99.99
2018-07-17T04:55:38.681Z,99.99
2018-07-17T04:56:38.728Z,99.99
2018-07-17T04:57:39.195Z,99.99
2018-07-17T04:58:38.642Z,99.99
2018-07-17T04:59:38.630Z,99.99
2018-07-17T05:00:38.860Z,99.99
2018-07-17T05:01:38.701Z,99.99
2018-07-17T05:02:39.579Z,99.99
2018-07-17T05:03:38.623Z,99.99
2018-07-17T05:04:38.849Z,99.99
2018-07-17T05:05:38.532Z,99.99
2018-07-17T05:06:38.585Z,99.99
2018-07-17T05:07:38.561Z,99.99
2018-07-17T05:08:38.634Z,99.99
2018-07-17T05:09:39.026Z,99.99
2018-07-17T05:10:38.773Z,99.99
2018-07-17T05:11:38.448Z,99.99
2018-07-17T05:12:38.448Z,99.99
2018-07-17T05:13:38.639Z,99.99
2018-07-17T05:14:38.415Z,99.99
2018-07-17T05:15:38.451Z,99.99
2018-07-17T05:16:38.788Z,99.99
2018-07-17T05:17:38.375Z,99.99
2018-07-17T05:18:38.412Z,99.91
2018-07-17T05:19:38.391Z,99.99
2018-07-17T05:20:38.340Z,99.15
2018-07-17T05:21:38.373Z,98.57
2018-07-17T05:22:38.805Z,97.42
2018-07-17T05:23:38.372Z,97.33
2018-07-17T05:24:38.385Z,96.80
2018-07-17T05:26:38.248Z,94.88
2018-07-17T05:27:38.307Z,95.75
2018-07-17T05:29:38.211Z,96.80
2018-07-17T05:30:38.314Z,96.32
2018-07-17T05:31:38.297Z,99.29
2018-07-17T05:32:38.169Z,99.10
2018-07-17T05:33:38.225Z,99.54
2018-07-17T05:34:38.442Z,99.99
2018-07-17T05:35:38.216Z,99.99
2018-07-17T05:36:38.128Z,99.82
2018-07-17T05:37:38.100Z,99.99
2018-07-17T05:38:38.190Z,99.99
2018-07-17T05:39:38.140Z,99.99
2018-07-17T05:40:38.378Z,99.99
2018-07-17T05:41:38.048Z,99.99
2018-07-17T05:42:38.044Z,99.99
2018-07-17T05:43:38.023Z,99.99
2018-07-17T05:44:38.070Z,99.99
2018-07-17T05:46:38.442Z,99.99
2018-07-17T05:47:37.973Z,99.99
2018-07-17T05:48:37.954Z,99.99
2018-07-17T05:49:37.955Z,99.99
2018-07-17T05:50:38.245Z,99.99
2018-07-17T05:51:37.918Z,99.99
2018-07-17T05:52:37.963Z,99.99
2018-07-17T05:53:38.193Z,99.99
2018-07-17T05:54:37.886Z,99.99
2018-07-17T05:55:37.872Z,99.99
2018-07-17T05:56:38.889Z,99.99
2018-07-17T05:57:37.847Z,99.99
2018-07-17T05:58:37.906Z,99.99
2018-07-17T05:59:37.827Z,99.99
2018-07-17T06:00:38.120Z,99.99
2018-07-17T06:01:37.801Z,99.99
2018-07-17T06:02:37.788Z,99.99
2018-07-17T06:03:37.769Z,99.99
2018-07-17T06:04:37.808Z,99.99
2018-07-17T06:05:37.748Z,99.99
2018-07-17T06:06:37.841Z,99.99
2018-07-17T06:07:38.042Z,99.99
2018-07-17T06:08:37.790Z,99.99
2018-07-17T06:09:37.742Z,99.99
2018-07-17T06:10:38.265Z,99.99
2018-07-17T06:11:37.890Z,99.99
2018-07-17T06:12:38.030Z,99.99
2018-07-17T06:13:37.737Z,99.99
2018-07-17T06:14:37.944Z,99.99
2018-07-17T06:15:37.627Z,99.99
2018-07-17T06:16:37.663Z,99.99
2018-07-17T06:17:37.606Z,99.99
2018-07-17T06:18:37.837Z,99.99
2018-07-17T06:19:37.591Z,99.99
2018-07-17T06:20:37.567Z,99.99
2018-07-17T06:21:37.854Z,99.99
2018-07-17T06:22:37.597Z,99.99
2018-07-17T06:23:37.545Z,99.99
2018-07-17T06:24:37.525Z,99.99
2018-07-17T06:25:37.515Z,99.99
2018-07-17T06:26:37.497Z,99.99
2018-07-17T06:28:37.781Z,99.99
2018-07-17T06:30:37.457Z,99.99
2018-07-17T06:31:37.511Z,99.99
2018-07-17T06:32:37.430Z,99.99
2018-07-17T06:33:37.427Z,99.99
2018-07-17T06:34:37.455Z,99.99
2018-07-17T06:35:37.693Z,99.99
2018-07-17T06:36:37.392Z,99.99
2018-07-17T06:37:37.374Z,99.99
2018-07-17T06:38:37.359Z,99.99
2018-07-17T06:39:37.350Z,99.99
2018-07-17T06:40:37.400Z,99.99
2018-07-17T06:41:37.647Z,99.99
2018-07-17T06:42:37.317Z,99.99
2018-07-17T06:43:37.323Z,99.99
2018-07-17T06:44:37.357Z,99.99
2018-07-17T06:45:37.285Z,99.99
2018-07-17T06:46:37.389Z,99.99
2018-07-17T06:47:37.911Z,99.99
2018-07-17T06:48:37.250Z,99.99
2018-07-17T06:50:37.405Z,99.99
2018-07-17T06:51:37.221Z,99.99
2018-07-17T06:53:37.548Z,99.99
2018-07-17T06:54:37.211Z,99.99
2018-07-17T06:55:37.179Z,99.99
2018-07-17T06:56:37.168Z,99.99
2018-07-17T06:57:37.196Z,99.99
2018-07-17T06:58:37.143Z,99.99
2018-07-17T06:59:37.480Z,99.99
2018-07-17T07:00:37.124Z,99.99
2018-07-17T07:01:37.115Z,99.99
2018-07-17T07:02:37.107Z,99.99
2018-07-17T07:03:37.107Z,99.99
2018-07-17T07:04:37.103Z,99.99
2018-07-17T07:05:37.372Z,99.99
2018-07-17T07:06:37.070Z,99.99
2018-07-17T07:07:37.046Z,99.99
2018-07-17T07:08:37.070Z,99.99
2018-07-17T07:09:37.033Z,99.99
2018-07-17T07:10:37.028Z,99.99
2018-07-17T07:11:37.087Z,99.99
2018-07-17T07:12:37.349Z,99.99
2018-07-17T07:13:36.986Z,99.99
2018-07-17T07:14:36.985Z,99.99
2018-07-17T07:15:36.972Z,99.99
2018-07-17T07:16:36.954Z,99.02
2018-07-17T07:17:37.004Z,97.62
2018-07-17T07:18:37.261Z,98.97
2018-07-17T07:19:36.922Z,98.58
2018-07-17T07:20:37.136Z,97.04
2018-07-17T07:21:37.766Z,98.97
2018-07-17T07:22:36.898Z,98.68
2018-07-17T07:23:36.945Z,99.84
2018-07-17T07:24:37.181Z,99.07
2018-07-17T07:25:36.875Z,98.00
2018-07-17T07:26:36.870Z,97.19
2018-07-17T07:27:36.847Z,97.57
2018-07-17T07:28:36.864Z,97.96
2018-07-17T07:29:36.879Z,97.96
2018-07-17T07:30:37.065Z,96.75
2018-07-17T07:31:37.145Z,96.84
2018-07-17T07:32:36.917Z,96.94
2018-07-17T07:33:36.806Z,96.75
2018-07-17T07:34:36.984Z,98.30
2018-07-17T07:35:36.816Z,95.49
2018-07-17T07:36:36.757Z,95.64
2018-07-17T07:37:37.048Z,97.96
2018-07-17T07:38:37.443Z,95.49
2018-07-17T07:39:36.731Z,95.78
2018-07-17T07:40:36.869Z,92.78
2018-07-17T07:41:36.860Z,91.47
2018-07-17T07:42:36.703Z,89.53
2018-07-17T07:43:37.291Z,87.60
2018-07-17T07:44:36.990Z,88.09
2018-07-17T07:45:36.689Z,89.92
2018-07-17T07:46:36.685Z,87.06
2018-07-17T07:47:36.723Z,84.16
2018-07-17T07:48:36.647Z,84.83
2018-07-17T07:49:36.632Z,81.87
2018-07-17T07:50:37.183Z,81.39
2018-07-17T07:51:36.624Z,83.03
2018-07-17T07:52:36.612Z,81.72
2018-07-17T07:54:36.693Z,82.10
2018-07-17T07:55:36.692Z,78.66
2018-07-17T07:56:36.870Z,77.01
2018-07-17T07:57:36.579Z,76.91
2018-07-17T07:58:36.575Z,78.50
2018-07-17T07:59:36.638Z,77.62
2018-07-17T08:00:36.804Z,74.33
2018-07-17T08:01:36.575Z,77.62
2018-07-17T08:02:36.878Z,76.01
2018-07-17T08:03:36.531Z,75.53
2018-07-17T08:04:36.717Z,74.17
2018-07-17T08:05:36.534Z,73.10
2018-07-17T08:06:36.585Z,72.81
2018-07-17T08:07:36.533Z,72.55
2018-07-17T08:08:36.789Z,72.61
2018-07-17T08:09:36.486Z,74.40
2018-07-17T08:10:36.461Z,73.00
2018-07-17T08:11:36.922Z,73.88
2018-07-17T08:12:36.498Z,73.88
2018-07-17T08:13:38.906Z,73.33
2018-07-17T08:14:36.430Z,72.85
2018-07-17T08:15:36.428Z,74.34
2018-07-17T08:16:36.766Z,71.03
2018-07-17T08:17:36.459Z,71.07
2018-07-17T08:18:36.488Z,69.03
2018-07-17T08:19:36.437Z,69.32
2018-07-17T08:20:36.791Z,67.93
2018-07-17T08:21:36.408Z,71.52
2018-07-17T08:22:36.378Z,70.20
2018-07-17T08:23:36.384Z,71.36
2018-07-17T08:24:36.438Z,70.32
2018-07-17T08:25:36.407Z,67.02
2018-07-17T08:26:36.647Z,69.16
2018-07-17T08:27:36.365Z,70.07
2018-07-17T08:28:36.481Z,67.93
2018-07-17T08:29:36.365Z,66.27
2018-07-17T08:30:36.379Z,64.78
2018-07-17T08:31:36.375Z,64.81
2018-07-17T08:32:36.623Z,66.08
2018-07-17T08:33:36.323Z,62.57
2018-07-17T08:34:36.307Z,65.01
2018-07-17T08:35:36.295Z,64.23
2018-07-17T08:36:36.684Z,62.87
2018-07-17T08:37:36.336Z,61.31
2018-07-17T08:38:36.317Z,60.72
2018-07-17T08:39:36.576Z,59.95
2018-07-17T08:40:36.272Z,59.20
2018-07-17T08:41:36.285Z,61.11
2018-07-17T08:42:36.309Z,61.80
2018-07-17T08:43:36.295Z,60.56
2018-07-17T08:44:36.287Z,58.71
2018-07-17T08:45:36.549Z,60.95
2018-07-17T08:46:36.231Z,61.34
2018-07-17T08:47:36.233Z,58.91
2018-07-17T08:49:36.487Z,59.26
2018-07-17T08:50:36.213Z,58.84
2018-07-17T08:51:36.571Z,59.52
2018-07-17T08:52:36.569Z,60.88
2018-07-17T08:54:36.321Z,57.67
2018-07-17T08:57:36.558Z,54.72
2018-07-17T08:58:36.275Z,56.11
2018-07-17T08:59:37.191Z,55.13
2018-07-17T09:00:36.578Z,53.87
2018-07-17T09:02:36.689Z,53.21
2018-07-17T09:03:36.600Z,53.41
2018-07-17T09:05:36.160Z,54.58
2018-07-17T09:06:36.219Z,52.92
2018-07-17T09:07:36.227Z,53.50
2018-07-17T09:08:36.254Z,53.70
2018-07-17T09:10:36.560Z,51.46
2018-07-17T09:11:36.270Z,52.17
2018-07-17T09:13:36.250Z,51.58
2018-07-17T09:14:36.164Z,51.07
2018-07-17T09:15:36.576Z,50.97
2018-07-17T09:16:36.179Z,50.75
2018-07-17T09:17:36.691Z,52.83
2018-07-17T09:18:36.350Z,53.41
2018-07-17T09:19:37.774Z,50.90
2018-07-17T09:20:36.139Z,48.00
2018-07-17T09:21:36.185Z,48.97
2018-07-17T09:23:37.392Z,49.07
2018-07-17T09:24:36.134Z,51.43
2018-07-17T09:25:36.123Z,47.73
2018-07-17T09:26:36.119Z,49.19
2018-07-17T09:27:36.183Z,51.34
2018-07-17T09:28:36.434Z,51.46
2018-07-17T09:29:36.676Z,49.61
2018-07-17T09:30:36.106Z,50.39
2018-07-17T09:31:36.486Z,51.00
2018-07-17T09:32:37.557Z,48.97
2018-07-17T09:33:36.189Z,48.87
2018-07-17T09:34:36.458Z,46.04
2018-07-17T09:35:36.274Z,46.53
2018-07-17T09:36:36.821Z,48.94
2018-07-17T09:37:37.504Z,49.33
2018-07-17T09:38:39.289Z,48.85
2018-07-17T09:39:36.570Z,47.19
2018-07-17T09:40:36.571Z,49.43
2018-07-17T09:41:36.584Z,45.92
2018-07-17T09:42:36.484Z,46.89
2018-07-17T09:43:38.088Z,50.15
2018-07-17T09:44:36.348Z,47.04
2018-07-17T09:45:36.089Z,46.86
2018-07-17T09:46:36.415Z,45.37
2018-07-17T09:47:36.308Z,44.69
2018-07-17T09:48:36.683Z,46.43
2018-07-17T09:49:36.196Z,45.76
2018-07-17T09:50:36.372Z,46.41
2018-07-17T09:51:36.319Z,48.12
2018-07-17T09:52:37.045Z,46.83
2018-07-17T09:53:36.120Z,45.19
2018-07-17T09:54:36.081Z,44.07
2018-07-17T09:55:36.080Z,44.48
2018-07-17T09:56:37.853Z,45.29
2018-07-17T09:59:36.424Z,44.94
2018-07-17T10:00:36.962Z,45.43
2018-07-17T10:01:36.188Z,45.75
2018-07-17T10:02:36.231Z,44.30
2018-07-17T10:03:36.441Z,43.23
2018-07-17T10:04:36.095Z,43.42
2018-07-17T10:05:37.004Z,43.32
2018-07-17T10:06:36.146Z,44.62
2018-07-17T10:07:36.191Z,43.76
2018-07-17T10:08:36.167Z,40.21
2018-07-17T10:09:37.642Z,43.07
2018-07-17T10:10:38.054Z,44.07
2018-07-17T10:11:36.709Z,41.03
2018-07-17T10:12:36.477Z,41.02
2018-07-17T10:13:36.508Z,41.49
2018-07-17T10:14:36.221Z,41.00
2018-07-17T10:15:36.228Z,40.80
2018-07-17T10:16:36.296Z,43.73
2018-07-17T10:17:36.599Z,43.42
2018-07-17T10:18:36.143Z,43.93
2018-07-17T10:19:36.629Z,40.41
2018-07-17T10:20:36.098Z,39.82
2018-07-17T10:21:36.327Z,40.03
2018-07-17T10:22:37.489Z,40.92
2018-07-17T10:23:36.562Z,39.45
2018-07-17T10:24:36.200Z,41.50
2018-07-17T10:25:36.168Z,41.92
2018-07-17T10:26:36.225Z,38.98
2018-07-17T10:27:36.224Z,39.56
2018-07-17T10:28:36.227Z,42.99
2018-07-17T10:29:36.484Z,38.31
2018-07-17T10:30:36.175Z,39.27
2018-07-17T10:33:36.242Z,39.31
2018-07-17T10:35:36.458Z,40.94
2018-07-17T10:36:36.159Z,41.13
2018-07-17T10:37:36.179Z,40.86
2018-07-17T10:38:37.501Z,40.98
2018-07-17T10:40:36.532Z,37.68
2018-07-17T10:41:36.607Z,38.54
2018-07-17T10:42:36.373Z,38.35
2018-07-17T10:43:36.404Z,39.62
2018-07-17T10:44:36.269Z,40.21
2018-07-17T10:45:36.134Z,39.72
2018-07-17T10:46:36.499Z,39.82
2018-07-17T10:47:36.197Z,39.54
2018-07-17T10:48:36.645Z,39.14
2018-07-17T10:50:37.026Z,38.76
2018-07-17T10:51:38.642Z,37.80
2018-07-17T10:53:36.591Z,38.19
2018-07-17T10:54:36.154Z,37.88
2018-07-17T10:55:36.263Z,38.64
2018-07-17T10:56:36.396Z,39.84
2018-07-17T10:57:36.212Z,37.70
2018-07-17T10:58:36.590Z,40.16
2018-07-17T10:59:36.501Z,39.07
2018-07-17T11:00:36.674Z,38.78
2018-07-17T11:01:36.283Z,39.06
2018-07-17T11:02:36.382Z,40.25
2018-07-17T11:03:37.683Z,40.13
2018-07-17T11:04:36.371Z,37.50
2018-07-17T11:06:36.492Z,36.52
2018-07-17T11:07:36.329Z,36.32
2018-07-17T11:08:36.252Z,36.19
2018-07-17T11:09:36.233Z,40.33
2018-07-17T11:12:42.893Z,40.08
2018-07-17T11:15:36.368Z,36.87
2018-07-17T11:16:36.281Z,38.26
2018-07-17T11:17:37.081Z,35.63
2018-07-17T11:20:36.676Z,39.54
2018-07-17T11:21:36.625Z,38.60
2018-07-17T11:22:36.321Z,36.63
2018-07-17T11:23:36.253Z,36.38
2018-07-17T11:24:37.453Z,38.68
2018-07-17T11:25:36.263Z,35.88
2018-07-17T11:26:36.986Z,36.59
2018-07-17T11:27:36.572Z,37.65
2018-07-17T11:28:36.410Z,36.91
2018-07-17T11:29:37.000Z,37.58
2018-07-17T11:30:36.683Z,37.01
2018-07-17T11:31:36.344Z,38.60
2018-07-17T11:33:36.609Z,36.85
2018-07-17T11:34:36.310Z,35.59
2018-07-17T11:36:36.745Z,36.30
2018-07-17T11:37:36.285Z,36.30
2018-07-17T11:38:36.405Z,37.01
2018-07-17T11:39:36.642Z,34.05
2018-07-17T11:40:36.297Z,33.12
2018-07-17T11:41:36.295Z,33.59
2018-07-17T11:43:36.304Z,35.38
2018-07-17T11:44:36.576Z,38.62
2018-07-17T11:45:36.632Z,37.57
2018-07-17T11:46:36.476Z,33.82
2018-07-17T11:47:36.731Z,33.29
2018-07-17T11:48:36.444Z,35.66
2018-07-17T11:49:36.368Z,33.79
2018-07-17T11:50:36.421Z,34.67
2018-07-17T11:51:36.624Z,33.89
2018-07-17T11:52:36.339Z,36.34
2018-07-17T11:54:36.415Z,37.55
2018-07-17T11:55:36.392Z,38.07
2018-07-17T11:56:36.441Z,33.94
2018-07-17T11:57:36.676Z,34.63
2018-07-17T11:58:36.535Z,35.02
2018-07-17T11:59:36.645Z,38.09
2018-07-17T12:00:36.395Z,35.92
2018-07-17T12:01:36.473Z,36.94
2018-07-17T12:02:36.482Z,33.80
2018-07-17T12:03:36.674Z,33.42
2018-07-17T12:04:36.414Z,34.15
2018-07-17T12:05:36.688Z,32.85
2018-07-17T12:07:36.459Z,33.42
2018-07-17T12:08:36.565Z,33.72
2018-07-17T12:09:37.943Z,33.44
2018-07-17T12:10:37.674Z,33.79
2018-07-17T12:12:36.554Z,35.06
2018-07-17T12:13:36.413Z,37.29
2018-07-17T12:14:36.475Z,37.05
2018-07-17T12:15:36.720Z,37.82
2018-07-17T12:16:36.511Z,38.10
2018-07-17T12:17:36.961Z,38.67
2018-07-17T12:18:36.458Z,39.49
2018-07-17T12:19:36.422Z,36.68
2018-07-17T12:20:36.744Z,33.95
2018-07-17T12:24:36.815Z,32.72
2018-07-17T12:25:36.467Z,34.39
2018-07-17T12:26:36.510Z,36.08
2018-07-17T12:27:36.753Z,37.15
2018-07-17T12:28:36.453Z,34.16
2018-07-17T12:29:36.479Z,34.15
2018-07-17T12:30:36.814Z,34.52
2018-07-17T12:31:36.477Z,38.46
2018-07-17T12:32:36.702Z,36.90
2018-07-17T12:33:36.803Z,36.43
2018-07-17T12:34:36.823Z,37.57
2018-07-17T12:35:36.924Z,38.42
2018-07-17T12:36:38.399Z,38.40
2018-07-17T12:37:36.669Z,39.18
2018-07-17T12:38:36.563Z,39.78
2018-07-17T12:39:36.460Z,40.84
2018-07-17T12:40:37.152Z,42.11
2018-07-17T12:41:37.869Z,42.87
2018-07-17T12:42:38.829Z,42.19
2018-07-17T12:43:37.019Z,41.99
2018-07-17T12:46:38.578Z,41.29
2018-07-17T12:49:36.980Z,38.22
2018-07-17T12:50:36.873Z,39.76
2018-07-17T12:52:36.867Z,39.29
2018-07-17T12:53:36.616Z,41.15
2018-07-17T12:54:36.488Z,40.45
2018-07-17T12:55:36.917Z,41.25
2018-07-17T12:56:36.536Z,39.51
2018-07-17T12:59:36.539Z,39.92
2018-07-17T13:01:36.924Z,40.14
2018-07-17T13:02:37.570Z,41.28
2018-07-17T13:03:36.529Z,42.65
2018-07-17T13:04:36.486Z,43.80
2018-07-17T13:05:36.766Z,45.07
2018-07-17T13:06:37.337Z,45.84
2018-07-17T13:07:38.383Z,42.19
2018-07-17T13:10:36.644Z,43.62
2018-07-17T13:11:38.525Z,42.71
2018-07-17T13:12:36.992Z,42.52
2018-07-17T13:15:36.901Z,40.98
2018-07-17T13:16:37.484Z,39.41
2018-07-17T13:17:36.506Z,38.25
2018-07-17T13:18:36.461Z,37.74
2018-07-17T13:20:37.724Z,38.27
2018-07-17T13:23:36.976Z,35.38
2018-07-17T13:31:43.578Z,34.53
2018-07-17T13:34:38.345Z,37.34
2018-07-17T13:36:38.454Z,35.74
2018-07-17T13:39:38.570Z,36.07
2018-07-17T13:43:37.408Z,32.11
2018-07-17T13:45:43.856Z,31.92
2018-07-17T13:46:37.549Z,33.79
2018-07-17T13:47:37.612Z,33.29
2018-07-17T13:48:36.939Z,33.89
2018-07-17T13:49:38.243Z,32.31
2018-07-17T13:50:37.732Z,32.21
2018-07-17T13:51:36.503Z,31.42
2018-07-17T13:52:36.540Z,33.31
2018-07-17T13:53:37.163Z,31.44
2018-07-17T13:54:36.843Z,32.52
2018-07-17T13:55:39.862Z,30.71
2018-07-17T13:56:36.504Z,33.15
2018-07-17T13:57:37.934Z,33.17
2018-07-17T13:59:37.037Z,33.20
2018-07-17T14:01:37.492Z,30.83
2018-07-17T14:02:36.663Z,31.24
2018-07-17T14:04:36.825Z,29.86
2018-07-17T14:05:36.670Z,30.06
2018-07-17T14:06:37.762Z,29.76
2018-07-17T14:09:38.029Z,33.39
2018-07-17T14:10:38.073Z,33.28
2018-07-17T14:11:37.377Z,33.36
2018-07-17T14:12:37.413Z,33.58
2018-07-17T14:13:37.731Z,34.48
2018-07-17T14:14:36.896Z,33.48
2018-07-17T14:15:52.323Z,32.26
2018-07-17T14:18:36.790Z,33.43
2018-07-17T14:22:36.861Z,33.98
2018-07-17T14:23:37.057Z,34.30
2018-07-17T14:24:36.797Z,31.14
2018-07-17T14:25:36.909Z,32.23
2018-07-17T14:26:37.065Z,33.10
2018-07-17T14:27:36.750Z,30.73
2018-07-17T14:28:36.908Z,29.24
2018-07-17T14:29:37.068Z,34.63
2018-07-17T14:30:36.827Z,33.98
2018-07-17T14:31:36.736Z,35.03
2018-07-17T14:32:37.681Z,33.90
2018-07-17T14:33:36.692Z,33.39
2018-07-17T14:34:36.982Z,35.06
2018-07-17T14:35:37.035Z,33.43
2018-07-17T14:37:36.717Z,34.67
2018-07-17T14:38:37.147Z,31.26
2018-07-17T14:39:36.718Z,31.57
2018-07-17T14:40:36.946Z,31.49
2018-07-17T14:41:37.708Z,30.85
2018-07-17T14:42:37.021Z,30.85
2018-07-17T14:43:36.692Z,33.70
2018-07-17T14:44:37.519Z,30.94
2018-07-17T14:45:36.699Z,30.50
2018-07-17T14:46:36.797Z,31.68
2018-07-17T14:47:36.711Z,32.14
2018-07-17T14:48:36.983Z,34.14
2018-07-17T14:49:36.833Z,34.91